createdAt,value
2022-11-18T00:01:31.171Z,11.52
2022-11-18T00:06:30.007Z,7.25
2022-11-18T00:09:01.403Z,11.13
2022-11-18T00:11:48.230Z,13.47
2022-11-18T00:14:28.116Z,13.07
2022-11-18T00:17:04.305Z,11.97
2022-11-18T00:19:35.590Z,13.13
2022-11-18T00:22:05.708Z,13.00
2022-11-18T00:24:35.176Z,11.53
2022-11-18T00:27:03.252Z,9.90
2022-11-18T00:29:32.388Z,7.85
2022-11-18T00:32:00.545Z,6.80
2022-11-18T00:34:29.523Z,6.70
2022-11-18T00:36:57.537Z,10.77
2022-11-18T00:39:28.124Z,14.30
2022-11-18T00:42:14.631Z,9.30
2022-11-18T00:44:42.802Z,7.50
2022-11-18T00:47:10.776Z,9.43
2022-11-18T00:49:38.688Z,7.03
2022-11-18T00:52:08.854Z,11.40
2022-11-18T00:54:36.888Z,8.33
2022-11-18T00:57:06.206Z,12.05
2022-11-18T00:59:36.180Z,10.43
2022-11-18T01:02:04.277Z,8.20
2022-11-18T01:04:32.481Z,10.48
2022-11-18T01:07:03.035Z,5.55
2022-11-18T01:09:31.083Z,6.53
2022-11-18T01:12:18.017Z,10.43
2022-11-18T01:14:46.217Z,7.40
2022-11-18T01:17:14.196Z,9.73
2022-11-18T01:19:43.255Z,10.30
2022-11-18T01:22:11.254Z,10.83
2022-11-18T01:24:39.241Z,4.90
2022-11-18T01:27:08.205Z,8.68
2022-11-18T01:29:37.546Z,8.00
2022-11-18T01:37:22.643Z,11.63
2022-11-18T01:39:50.735Z,9.18
2022-11-18T01:42:20.073Z,9.98
2022-11-18T01:45:11.669Z,7.33
2022-11-18T01:47:47.296Z,4.70
2022-11-18T01:50:17.189Z,9.90
2022-11-18T01:52:51.467Z,7.47
2022-11-18T01:55:27.997Z,6.13
2022-11-18T01:58:07.292Z,11.37
2022-11-18T02:00:35.893Z,12.23
2022-11-18T02:03:04.863Z,9.67
2022-11-18T02:05:34.960Z,12.10
2022-11-18T02:08:06.954Z,13.20
2022-11-18T02:10:35.025Z,12.97
2022-11-18T02:13:03.751Z,9.80
2022-11-18T02:16:17.495Z,8.30
2022-11-18T02:18:57.214Z,10.30
2022-11-18T02:21:44.880Z,8.30
2022-11-18T02:24:40.436Z,12.57
2022-11-18T02:27:29.210Z,10.43
2022-11-18T02:30:04.705Z,10.87
2022-11-18T02:32:42.439Z,9.27
2022-11-18T02:35:16.036Z,12.05
2022-11-18T02:38:19.591Z,7.37
2022-11-18T02:40:53.027Z,11.27
2022-11-18T02:43:29.222Z,9.07
2022-11-18T02:46:04.717Z,6.77
2022-11-18T02:48:37.974Z,11.03
2022-11-18T02:51:10.387Z,17.00
2022-11-18T02:53:41.401Z,11.23
2022-11-18T02:56:11.255Z,19.13
2022-11-18T02:58:39.298Z,17.30
2022-11-18T03:01:07.495Z,33.08
2022-11-18T03:03:38.478Z,46.72
2022-11-18T03:06:21.178Z,31.30
2022-11-18T03:09:15.895Z,15.47
2022-11-18T03:12:08.648Z,11.57
2022-11-18T03:14:49.262Z,15.33
2022-11-18T03:17:23.066Z,12.70
2022-11-18T03:20:06.607Z,10.73
2022-11-18T03:22:44.714Z,13.53
2022-11-18T03:25:31.152Z,14.13
2022-11-18T03:28:40.614Z,25.70
2022-11-18T03:31:24.233Z,17.23
2022-11-18T03:33:58.670Z,20.97
2022-11-18T03:36:33.424Z,15.83
2022-11-18T03:39:04.782Z,24.30
2022-11-18T03:41:39.717Z,30.50
2022-11-18T03:44:16.206Z,38.50
2022-11-18T03:46:52.683Z,25.23
2022-11-18T03:49:33.088Z,19.40
2022-11-18T03:52:11.101Z,20.43
2022-11-18T03:54:41.395Z,15.73
2022-11-18T03:57:23.681Z,16.17
2022-11-18T04:00:13.300Z,21.17
2022-11-18T04:02:41.937Z,11.93
2022-11-18T04:07:57.240Z,13.50
2022-11-18T04:10:38.573Z,15.40
2022-11-18T04:13:39.757Z,15.30
2022-11-18T04:16:10.502Z,12.50
2022-11-18T04:18:38.623Z,14.93
2022-11-18T04:21:08.251Z,14.98
2022-11-18T04:23:36.282Z,15.97
2022-11-18T04:26:04.271Z,12.90
2022-11-18T04:28:34.797Z,11.50
2022-11-18T04:31:02.829Z,12.30
2022-11-18T04:33:30.880Z,14.45
2022-11-18T04:35:59.877Z,12.07
2022-11-18T04:38:27.893Z,10.93
2022-11-18T04:40:55.836Z,11.32
2022-11-18T04:43:24.070Z,12.32
2022-11-18T04:45:52.108Z,9.60
2022-11-18T04:48:20.185Z,10.30
2022-11-18T04:50:49.165Z,11.95
2022-11-18T04:53:17.181Z,12.00
2022-11-18T04:55:45.239Z,12.63
2022-11-18T04:58:15.871Z,12.50
2022-11-18T05:00:44.743Z,10.70
2022-11-18T05:03:12.733Z,10.77
2022-11-18T05:05:41.041Z,8.88
2022-11-18T05:08:08.983Z,10.27
2022-11-18T05:10:39.361Z,11.00
2022-11-18T05:13:07.529Z,9.20
2022-11-18T05:15:35.482Z,9.82
2022-11-18T05:18:03.504Z,11.52
2022-11-18T05:20:38.797Z,11.77
2022-11-18T05:23:09.414Z,13.43
2022-11-18T05:25:37.394Z,9.77
2022-11-18T05:28:05.636Z,11.40
2022-11-18T05:30:33.717Z,16.73
2022-11-18T05:33:01.710Z,12.23
2022-11-18T05:35:29.909Z,12.02
2022-11-18T05:37:57.827Z,13.63
2022-11-18T05:40:25.785Z,12.82
2022-11-18T05:43:12.062Z,12.85
2022-11-18T05:45:41.677Z,15.43
2022-11-18T05:48:09.797Z,13.17
2022-11-18T05:50:39.788Z,11.02
2022-11-18T05:53:07.876Z,11.77
2022-11-18T05:56:21.215Z,23.05
2022-11-18T05:58:49.264Z,19.00
2022-11-18T06:01:23.099Z,20.70
2022-11-18T06:03:52.084Z,19.27
2022-11-18T06:06:22.592Z,19.37
2022-11-18T06:09:08.059Z,18.00
2022-11-18T06:11:58.020Z,15.37
2022-11-18T06:14:41.098Z,13.87
2022-11-18T06:17:16.069Z,17.50
2022-11-18T06:19:44.575Z,17.07
2022-11-18T06:22:14.239Z,13.03
2022-11-18T06:24:43.769Z,10.18
2022-11-18T06:27:13.948Z,18.03
2022-11-18T06:29:41.979Z,17.53
2022-11-18T06:32:10.212Z,16.05
2022-11-18T06:34:41.971Z,16.08
2022-11-18T06:37:19.120Z,15.30
2022-11-18T06:39:48.888Z,15.43
2022-11-18T06:42:36.898Z,12.10
2022-11-18T06:45:07.181Z,10.35
2022-11-18T06:47:35.184Z,11.07
2022-11-18T06:50:03.199Z,7.22
2022-11-18T06:52:31.404Z,4.15
2022-11-18T06:54:59.479Z,5.88
2022-11-18T06:57:27.571Z,7.07
2022-11-18T07:00:01.658Z,6.43
2022-11-18T07:02:32.058Z,7.00
2022-11-18T07:05:00.087Z,9.35
2022-11-18T07:07:31.187Z,9.70
2022-11-18T07:09:59.384Z,8.43
2022-11-18T07:12:27.342Z,8.98
2022-11-18T07:14:55.505Z,6.53
2022-11-18T07:17:23.564Z,7.45
2022-11-18T07:19:51.643Z,6.38
2022-11-18T07:22:21.134Z,6.05
2022-11-18T07:24:51.157Z,5.87
2022-11-18T07:27:21.720Z,3.67
2022-11-18T07:29:52.056Z,7.47
2022-11-18T07:32:20.107Z,7.43
2022-11-18T07:34:48.112Z,5.97
2022-11-18T07:37:18.131Z,8.88
2022-11-18T07:39:46.311Z,8.88
2022-11-18T07:42:14.429Z,8.95
2022-11-18T07:44:42.693Z,9.48
2022-11-18T07:47:10.691Z,7.45
2022-11-18T07:49:38.748Z,6.05
2022-11-18T07:52:06.853Z,4.43
2022-11-18T07:54:34.835Z,4.80
2022-11-18T07:57:02.823Z,7.22
2022-11-18T07:59:31.739Z,6.70
2022-11-18T08:04:29.088Z,5.80
2022-11-18T08:06:58.713Z,5.65
2022-11-18T08:09:26.814Z,8.85
2022-11-18T08:11:54.777Z,6.82
2022-11-18T08:14:24.975Z,6.40
2022-11-18T08:16:53.014Z,7.97
2022-11-18T08:19:21.101Z,9.82
2022-11-18T08:21:50.965Z,3.97
2022-11-18T08:24:21.865Z,8.32
2022-11-18T08:26:51.572Z,7.00
2022-11-18T08:29:24.973Z,6.30
2022-11-18T08:31:54.058Z,6.25
2022-11-18T08:34:22.205Z,6.60
2022-11-18T08:36:52.336Z,4.88
2022-11-18T08:39:20.505Z,5.57
2022-11-18T08:41:48.591Z,6.13
2022-11-18T08:44:18.472Z,4.72
2022-11-18T08:46:46.878Z,6.60
2022-11-18T08:49:15.735Z,7.03
2022-11-18T08:51:45.250Z,7.50
2022-11-18T08:54:13.228Z,7.27
2022-11-18T08:56:41.490Z,6.70
2022-11-18T08:59:09.972Z,5.90
2022-11-18T09:01:39.475Z,5.32
2022-11-18T09:04:07.604Z,7.57
2022-11-18T09:06:35.707Z,6.15
2022-11-18T09:09:18.289Z,8.35
2022-11-18T09:11:46.477Z,7.30
2022-11-18T09:17:03.543Z,6.90
2022-11-18T09:19:46.642Z,5.70
2022-11-18T09:22:18.162Z,5.13
2022-11-18T09:24:46.257Z,5.32
2022-11-18T09:30:04.239Z,7.28
2022-11-18T09:32:34.593Z,6.30
2022-11-18T09:35:02.692Z,7.22
2022-11-18T09:37:32.096Z,3.92
2022-11-18T09:40:00.241Z,5.13
2022-11-18T09:42:55.972Z,5.80
2022-11-18T09:45:46.121Z,9.27
2022-11-18T09:48:48.340Z,5.90
2022-11-18T09:51:16.356Z,6.43
2022-11-18T09:53:46.711Z,8.00
2022-11-18T09:56:18.254Z,12.20
2022-11-18T09:58:46.663Z,28.23
2022-11-18T10:01:19.635Z,27.65
2022-11-18T10:03:48.541Z,23.15
2022-11-18T10:09:19.255Z,20.52
2022-11-18T10:11:58.464Z,26.80
2022-11-18T10:14:52.393Z,13.13
2022-11-18T10:17:36.519Z,12.77
2022-11-18T10:20:35.717Z,13.67
2022-11-18T10:23:15.376Z,8.23
2022-11-18T10:25:43.896Z,9.53
2022-11-18T10:28:23.924Z,7.50
2022-11-18T10:30:53.697Z,8.50
2022-11-18T10:33:28.605Z,13.03
2022-11-18T10:36:17.858Z,14.17
2022-11-18T10:38:50.099Z,16.60
2022-11-18T10:41:21.712Z,14.80
2022-11-18T10:43:58.119Z,15.90
2022-11-18T10:46:35.111Z,14.83
2022-11-18T10:49:18.965Z,11.67
2022-11-18T10:52:13.611Z,10.67
2022-11-18T10:54:44.328Z,10.13
2022-11-18T10:57:12.311Z,11.87
2022-11-18T10:59:52.070Z,11.45
2022-11-18T11:02:55.220Z,14.50
2022-11-18T11:05:25.540Z,11.17
2022-11-18T11:08:34.577Z,13.80
2022-11-18T11:11:00.103Z,5.70
2022-11-18T11:13:31.435Z,6.83
2022-11-18T11:16:04.423Z,9.00
2022-11-18T11:18:44.219Z,8.10
2022-11-18T11:21:17.433Z,6.63
2022-11-18T11:23:48.138Z,6.63
2022-11-18T11:29:58.332Z,7.30
2022-11-18T11:32:48.169Z,3.23
2022-11-18T11:35:35.912Z,5.80
2022-11-18T11:38:13.927Z,5.05
2022-11-18T11:41:08.420Z,8.68
2022-11-18T11:44:20.836Z,3.67
2022-11-18T11:47:24.322Z,4.07
2022-11-18T11:50:04.187Z,7.80
2022-11-18T11:53:17.180Z,7.40
2022-11-18T11:56:12.768Z,5.90
2022-11-18T11:58:50.712Z,4.73
2022-11-18T12:01:32.403Z,5.28
2022-11-18T12:04:28.058Z,7.97
2022-11-18T12:06:57.142Z,7.97
2022-11-18T12:09:34.394Z,9.07
2022-11-18T12:12:38.060Z,10.97
2022-11-18T12:15:24.733Z,12.13
2022-11-18T12:18:11.075Z,15.67
2022-11-18T12:20:44.207Z,10.57
2022-11-18T12:23:23.411Z,12.03
2022-11-18T12:25:53.642Z,10.20
2022-11-18T12:28:46.899Z,13.50
2022-11-18T12:31:23.894Z,18.50
2022-11-18T12:33:59.347Z,17.13
2022-11-18T12:36:27.514Z,16.63
2022-11-18T12:38:56.765Z,21.00
2022-11-18T12:42:01.653Z,21.20
2022-11-18T12:44:32.191Z,19.00
2022-11-18T12:47:05.023Z,16.33
2022-11-18T12:49:32.984Z,11.53
2022-11-18T12:52:03.112Z,16.10
2022-11-18T12:54:33.303Z,17.03
2022-11-18T12:57:23.051Z,17.67
2022-11-18T12:59:53.933Z,17.17
2022-11-18T13:02:30.597Z,16.67
2022-11-18T13:05:13.664Z,21.10
2022-11-18T13:08:15.664Z,22.20
2022-11-18T13:10:54.793Z,12.17
2022-11-18T13:13:33.690Z,21.30
2022-11-18T13:16:42.041Z,13.52
2022-11-18T13:19:21.773Z,15.33
2022-11-18T13:22:14.510Z,16.50
2022-11-18T13:24:48.157Z,17.73
2022-11-18T13:27:35.735Z,18.53
2022-11-18T13:30:09.169Z,21.73
2022-11-18T13:32:37.360Z,12.23
2022-11-18T13:35:24.533Z,15.50
2022-11-18T13:37:56.665Z,13.53
2022-11-18T13:40:40.972Z,17.93
2022-11-18T13:43:11.985Z,19.80
2022-11-18T13:45:40.799Z,16.73
2022-11-18T13:48:17.064Z,17.23
2022-11-18T13:50:55.866Z,16.90
2022-11-18T13:53:41.229Z,12.80
2022-11-18T13:56:21.042Z,11.00
2022-11-18T14:01:40.935Z,18.57
2022-11-18T14:04:19.229Z,18.20
2022-11-18T14:09:29.212Z,24.13
2022-11-18T14:12:08.195Z,15.30
2022-11-18T14:14:42.338Z,13.53
2022-11-18T14:17:26.169Z,24.37
2022-11-18T14:20:00.133Z,24.43
2022-11-18T14:22:32.253Z,22.97
2022-11-18T14:25:18.906Z,25.83
2022-11-18T14:27:50.097Z,21.63
2022-11-18T14:30:29.545Z,23.67
2022-11-18T14:33:17.342Z,30.83
2022-11-18T14:35:58.919Z,31.48
2022-11-18T14:38:44.086Z,36.27
2022-11-18T14:41:44.814Z,32.00
2022-11-18T14:44:14.326Z,27.55
2022-11-18T14:46:47.153Z,35.70
2022-11-18T14:49:18.944Z,40.23
2022-11-18T14:51:47.524Z,32.20
2022-11-18T14:54:25.852Z,35.28
2022-11-18T14:56:58.770Z,37.70
2022-11-18T14:59:28.126Z,32.27
2022-11-18T15:01:57.128Z,32.87
2022-11-18T15:04:26.470Z,22.00
2022-11-18T15:06:55.401Z,29.70
2022-11-18T15:09:23.720Z,27.13
2022-11-18T15:11:51.684Z,30.85
2022-11-18T15:14:21.327Z,28.73
2022-11-18T15:16:49.972Z,28.93
2022-11-18T15:19:18.120Z,24.95
2022-11-18T15:21:46.380Z,23.42
2022-11-18T15:24:14.625Z,23.08
2022-11-18T15:26:47.877Z,21.80
2022-11-18T15:29:21.173Z,26.07
2022-11-18T15:31:50.158Z,23.53
2022-11-18T15:34:21.498Z,23.90
2022-11-18T15:36:52.270Z,21.00
2022-11-18T15:39:20.282Z,21.77
2022-11-18T15:41:48.306Z,27.95
2022-11-18T15:44:17.125Z,25.40
2022-11-18T15:46:48.587Z,24.97
2022-11-18T15:49:18.377Z,37.37
2022-11-18T15:51:47.254Z,30.23
2022-11-18T15:54:15.554Z,31.93
2022-11-18T15:59:14.555Z,28.30
2022-11-18T16:01:48.332Z,25.70
2022-11-18T16:04:20.520Z,28.93
2022-11-18T16:06:50.407Z,24.43
2022-11-18T16:09:19.176Z,28.67
2022-11-18T16:12:05.767Z,26.37
2022-11-18T16:14:36.767Z,18.73
2022-11-18T16:17:04.933Z,12.93
2022-11-18T16:19:34.248Z,18.15
2022-11-18T16:22:02.302Z,18.37
2022-11-18T16:24:30.450Z,33.70
2022-11-18T16:26:58.735Z,26.20
2022-11-18T16:31:55.150Z,23.40
2022-11-18T16:34:30.196Z,22.53
2022-11-18T16:37:02.596Z,16.13
2022-11-18T16:39:30.771Z,14.37
2022-11-18T16:42:07.925Z,15.30
2022-11-18T16:49:44.094Z,23.93
2022-11-18T16:52:12.171Z,29.17
2022-11-18T16:54:45.767Z,17.45
2022-11-18T16:57:15.082Z,21.63
2022-11-18T16:59:43.172Z,21.33
2022-11-18T17:02:13.860Z,24.40
2022-11-18T17:04:42.294Z,29.27
2022-11-18T17:09:38.456Z,24.48
2022-11-18T17:14:34.745Z,22.88
2022-11-18T17:17:04.986Z,22.07
2022-11-18T17:19:33.195Z,19.97
2022-11-18T17:22:01.162Z,19.05
2022-11-18T17:24:29.363Z,13.73
2022-11-18T17:29:25.102Z,20.95
2022-11-18T17:31:55.303Z,17.55
2022-11-18T17:34:23.257Z,24.40
2022-11-18T17:39:21.395Z,15.82
2022-11-18T17:42:08.011Z,11.40
2022-11-18T17:44:37.009Z,13.83
2022-11-18T17:47:05.101Z,22.70
2022-11-18T17:49:33.154Z,18.05
2022-11-18T17:52:01.285Z,17.52
2022-11-18T17:54:29.417Z,16.30
2022-11-18T17:56:57.449Z,22.30
2022-11-18T17:59:26.296Z,17.92
2022-11-18T18:01:59.042Z,15.70
2022-11-18T18:04:27.811Z,20.63
2022-11-18T18:06:57.273Z,21.98
2022-11-18T18:09:30.398Z,16.20
2022-11-18T18:12:00.978Z,18.20
2022-11-18T18:14:29.081Z,25.00
2022-11-18T18:16:57.132Z,24.98
2022-11-18T18:19:25.338Z,22.80
2022-11-18T18:21:55.757Z,18.00
2022-11-18T18:24:24.831Z,17.83
2022-11-18T18:26:52.807Z,18.77
2022-11-18T18:29:22.164Z,21.58
2022-11-18T18:31:50.121Z,24.93
2022-11-18T18:34:18.935Z,20.35
2022-11-18T18:36:47.103Z,20.03
2022-11-18T18:39:14.995Z,22.15
2022-11-18T18:41:43.044Z,15.05
2022-11-18T18:44:15.347Z,26.02
2022-11-18T18:46:46.506Z,19.23
2022-11-18T18:49:22.111Z,22.70
2022-11-18T18:51:50.925Z,19.53
2022-11-18T18:54:21.126Z,23.70
2022-11-18T18:56:49.448Z,15.97
2022-11-18T18:59:17.460Z,25.38
2022-11-18T19:01:45.538Z,20.33
2022-11-18T19:06:58.460Z,19.60
2022-11-18T19:09:28.182Z,24.93
2022-11-18T19:12:14.950Z,21.23
2022-11-18T19:14:43.930Z,20.57
2022-11-18T19:17:12.860Z,20.53
2022-11-18T19:20:01.501Z,23.03
2022-11-18T19:22:33.870Z,19.47
2022-11-18T19:25:02.236Z,26.37
2022-11-18T19:27:33.106Z,19.87
2022-11-18T19:30:01.318Z,22.40
2022-11-18T19:32:31.880Z,15.90
2022-11-18T19:35:01.207Z,20.83
2022-11-18T19:37:29.195Z,14.87
2022-11-18T19:39:59.330Z,17.23
2022-11-18T19:42:27.454Z,22.53
2022-11-18T19:47:23.391Z,17.88
2022-11-18T19:52:19.192Z,22.95
2022-11-18T19:54:47.146Z,12.38
2022-11-18T19:57:17.108Z,20.35
2022-11-18T19:59:46.353Z,13.00
2022-11-18T20:02:14.908Z,25.03
2022-11-18T20:05:02.894Z,24.13
2022-11-18T20:07:31.221Z,23.07
2022-11-18T20:12:28.065Z,21.30
2022-11-18T20:14:56.028Z,25.30
2022-11-18T20:18:13.244Z,19.38
2022-11-18T20:20:41.514Z,12.63
2022-11-18T20:23:11.342Z,15.67
2022-11-18T20:28:07.161Z,20.30
2022-11-18T20:30:35.173Z,17.50
2022-11-18T20:33:06.373Z,7.43
2022-11-18T20:35:34.320Z,14.37
2022-11-18T20:38:02.461Z,26.90
2022-11-18T20:43:15.009Z,20.47
2022-11-18T20:45:46.035Z,20.27
2022-11-18T20:48:14.793Z,14.40
2022-11-18T20:50:42.727Z,16.80
2022-11-18T20:53:13.067Z,13.25
2022-11-18T20:55:41.099Z,27.50
2022-11-18T20:58:09.351Z,26.05
2022-11-18T21:00:38.084Z,20.67
2022-11-18T21:03:06.245Z,17.57
2022-11-18T21:08:03.695Z,19.30
2022-11-18T21:13:20.321Z,10.43
2022-11-18T21:15:48.224Z,16.70
2022-11-18T21:18:16.224Z,24.00
2022-11-18T21:23:30.742Z,26.33
2022-11-18T21:25:58.675Z,19.80
2022-11-18T21:28:31.099Z,17.35
2022-11-18T21:30:59.043Z,18.77
2022-11-18T21:33:26.981Z,17.15
2022-11-18T21:35:55.198Z,21.95
2022-11-18T21:38:23.189Z,14.27
2022-11-18T21:40:51.206Z,15.63
2022-11-18T21:43:25.130Z,16.85
2022-11-18T21:46:06.551Z,25.23
2022-11-18T21:48:34.783Z,17.07
2022-11-18T21:51:04.844Z,13.83
2022-11-18T21:53:33.122Z,15.10
2022-11-18T21:56:23.368Z,13.13
2022-11-18T21:58:52.737Z,14.57
2022-11-18T22:01:26.671Z,14.57
2022-11-18T22:03:57.370Z,15.80
2022-11-18T22:06:27.377Z,16.73
2022-11-18T22:08:57.065Z,11.30
2022-11-18T22:11:26.260Z,17.57
2022-11-18T22:13:54.512Z,8.67
2022-11-18T22:16:25.732Z,11.50
2022-11-18T22:19:01.453Z,15.20
2022-11-18T22:21:32.584Z,7.37
2022-11-18T22:24:06.199Z,18.10
2022-11-18T22:26:34.315Z,18.77
2022-11-18T22:29:02.323Z,11.57
2022-11-18T22:31:30.492Z,14.18
2022-11-18T22:33:58.477Z,9.67
2022-11-18T22:36:28.228Z,8.32
2022-11-18T22:38:57.817Z,11.40
2022-11-18T22:41:47.068Z,14.07
2022-11-18T22:44:18.578Z,9.43
2022-11-18T22:46:46.752Z,4.63
2022-11-18T22:49:14.926Z,14.47
2022-11-18T22:51:43.067Z,11.40
2022-11-18T22:56:58.938Z,8.67
2022-11-18T22:59:26.897Z,11.67
2022-11-18T23:01:55.026Z,8.50
2022-11-18T23:04:23.270Z,10.70
2022-11-18T23:06:51.224Z,15.53
2022-11-18T23:09:19.458Z,9.90
2022-11-18T23:12:06.354Z,16.73
2022-11-18T23:14:34.499Z,27.17
2022-11-18T23:19:30.441Z,22.38
2022-11-18T23:21:58.471Z,24.13
2022-11-18T23:24:27.437Z,11.03
2022-11-18T23:26:56.954Z,13.50
2022-11-18T23:29:24.940Z,18.97
2022-11-18T23:31:54.376Z,15.13
2022-11-18T23:34:22.559Z,8.33
2022-11-18T23:36:50.523Z,16.03
2022-11-18T23:39:18.823Z,9.40
2022-11-18T23:41:47.551Z,18.23
2022-11-18T23:44:15.552Z,10.77
2022-11-18T23:46:43.475Z,13.48
2022-11-18T23:49:13.249Z,16.20
2022-11-18T23:51:41.943Z,11.73
2022-11-18T23:54:09.843Z,6.93
2022-11-18T23:56:39.625Z,10.90
2022-11-18T23:59:07.598Z,6.37
